sensor_id;sensor_type;location;lat;lon;timestamp;pressure;altitude;pressure_sealevel;temperature;humidity
55761;BME280;41679;51.440;-2.012;2022-08-14T00:00:17;100125.31;;;20.02;100.00
55761;BME280;41679;51.440;-2.012;2022-08-14T00:02:43;100126.13;;;19.93;100.00
55761;BME280;41679;51.440;-2.012;2022-08-14T00:05:14;100116.47;;;19.70;100.00
55761;BME280;41679;51.440;-2.012;2022-08-14T00:07:39;100114.78;;;19.53;100.00
55761;BME280;41679;51.440;-2.012;2022-08-14T00:10:07;100111.69;;;19.29;100.00
55761;BME280;41679;51.440;-2.012;2022-08-14T00:12:35;100106.66;;;19.11;100.00
55761;BME280;41679;51.440;-2.012;2022-08-14T00:15:04;100101.09;;;18.90;100.00
55761;BME280;41679;51.440;-2.012;2022-08-14T00:17:30;100106.75;;;18.73;100.00
55761;BME280;41679;51.440;-2.012;2022-08-14T00:19:55;100108.59;;;18.57;100.00
55761;BME280;41679;51.440;-2.012;2022-08-14T00:22:21;100104.13;;;18.46;100.00
55761;BME280;41679;51.440;-2.012;2022-08-14T00:24:46;100095.28;;;18.39;100.00
55761;BME280;41679;51.440;-2.012;2022-08-14T00:27:12;100098.56;;;18.36;100.00
55761;BME280;41679;51.440;-2.012;2022-08-14T00:29:37;100097.19;;;18.33;100.00
55761;BME280;41679;51.440;-2.012;2022-08-14T00:32:03;100096.63;;;18.31;100.00
55761;BME280;41679;51.440;-2.012;2022-08-14T00:34:28;100092.19;;;18.25;100.00
55761;BME280;41679;51.440;-2.012;2022-08-14T00:36:54;100096.50;;;18.16;100.00
55761;BME280;41679;51.440;-2.012;2022-08-14T00:39:20;100098.91;;;18.07;100.00
55761;BME280;41679;51.440;-2.012;2022-08-14T00:41:46;100094.19;;;18.03;100.00
55761;BME280;41679;51.440;-2.012;2022-08-14T00:44:12;100092.81;;;18.00;100.00
55761;BME280;41679;51.440;-2.012;2022-08-14T00:46:39;100093.88;;;17.94;100.00
55761;BME280;41679;51.440;-2.012;2022-08-14T00:49:05;100097.97;;;17.91;100.00
55761;BME280;41679;51.440;-2.012;2022-08-14T00:51:32;100094.91;;;17.88;100.00
55761;BME280;41679;51.440;-2.012;2022-08-14T00:53:59;100099.03;;;17.90;100.00
55761;BME280;41679;51.440;-2.012;2022-08-14T00:56:27;100093.28;;;17.92;100.00
55761;BME280;41679;51.440;-2.012;2022-08-14T00:58:52;100092.47;;;17.91;100.00
55761;BME280;41679;51.440;-2.012;2022-08-14T01:01:19;100096.63;;;17.94;100.00
55761;BME280;41679;51.440;-2.012;2022-08-14T01:03:45;100095.50;;;17.95;100.00
55761;BME280;41679;51.440;-2.012;2022-08-14T01:06:12;100101.28;;;17.99;100.00
55761;BME280;41679;51.440;-2.012;2022-08-14T01:08:43;100095.56;;;18.00;100.00
55761;BME280;41679;51.440;-2.012;2022-08-14T01:11:10;100084.59;;;18.00;100.00
55761;BME280;41679;51.440;-2.012;2022-08-14T01:13:41;100091.47;;;18.03;100.00
55761;BME280;41679;51.440;-2.012;2022-08-14T01:16:11;100080.53;;;18.08;100.00
55761;BME280;41679;51.440;-2.012;2022-08-14T01:18:37;100081.91;;;18.10;100.00
55761;BME280;41679;51.440;-2.012;2022-08-14T01:21:41;100076.69;;;18.09;100.00
55761;BME280;41679;51.440;-2.012;2022-08-14T01:24:07;100076.41;;;18.05;100.00
55761;BME280;41679;51.440;-2.012;2022-08-14T01:26:34;100071.41;;;17.97;100.00
55761;BME280;41679;51.440;-2.012;2022-08-14T01:29:02;100076.78;;;17.87;100.00
55761;BME280;41679;51.440;-2.012;2022-08-14T01:31:31;100069.53;;;17.76;100.00
55761;BME280;41679;51.440;-2.012;2022-08-14T01:33:59;100070.28;;;17.66;100.00
55761;BME280;41679;51.440;-2.012;2022-08-14T01:36:27;100063.59;;;17.57;100.00
55761;BME280;41679;51.440;-2.012;2022-08-14T01:38:54;100064.94;;;17.54;100.00
55761;BME280;41679;51.440;-2.012;2022-08-14T01:41:25;100065.75;;;17.49;100.00
55761;BME280;41679;51.440;-2.012;2022-08-14T01:44:00;100055.03;;;17.48;100.00
55761;BME280;41679;51.440;-2.012;2022-08-14T01:46:37;100060.22;;;17.44;100.00
55761;BME280;41679;51.440;-2.012;2022-08-14T01:49:08;100050.03;;;17.40;100.00
55761;BME280;41679;51.440;-2.012;2022-08-14T01:51:35;100046.19;;;17.41;100.00
55761;BME280;41679;51.440;-2.012;2022-08-14T01:54:08;100044.00;;;17.43;100.00
55761;BME280;41679;51.440;-2.012;2022-08-14T01:56:35;100035.53;;;17.44;100.00
55761;BME280;41679;51.440;-2.012;2022-08-14T02:01:50;100026.78;;;17.47;100.00
55761;BME280;41679;51.440;-2.012;2022-08-14T02:04:16;100030.06;;;17.44;100.00
55761;BME280;41679;51.440;-2.012;2022-08-14T02:06:42;100030.31;;;17.43;100.00
55761;BME280;41679;51.440;-2.012;2022-08-14T02:09:08;100026.75;;;17.42;100.00
55761;BME280;41679;51.440;-2.012;2022-08-14T02:11:34;100020.13;;;17.38;100.00
55761;BME280;41679;51.440;-2.012;2022-08-14T02:14:05;100019.81;;;17.35;100.00
55761;BME280;41679;51.440;-2.012;2022-08-14T02:16:36;100019.53;;;17.31;100.00
55761;BME280;41679;51.440;-2.012;2022-08-14T02:19:08;100014.50;;;17.23;100.00
55761;BME280;41679;51.440;-2.012;2022-08-14T02:21:36;100019.03;;;17.12;100.00
55761;BME280;41679;51.440;-2.012;2022-08-14T02:24:04;100016.75;;;17.04;100.00
55761;BME280;41679;51.440;-2.012;2022-08-14T02:26:36;100015.00;;;16.93;100.00
55761;BME280;41679;51.440;-2.012;2022-08-14T02:29:10;100011.34;;;16.82;100.00
55761;BME280;41679;51.440;-2.012;2022-08-14T02:31:40;100008.50;;;16.77;100.00
55761;BME280;41679;51.440;-2.012;2022-08-14T02:34:08;100003.28;;;16.75;100.00
55761;BME280;41679;51.440;-2.012;2022-08-14T02:36:37;100002.97;;;16.72;100.00
55761;BME280;41679;51.440;-2.012;2022-08-14T02:39:08;100004.31;;;16.69;100.00
55761;BME280;41679;51.440;-2.012;2022-08-14T02:41:34;99995.50;;;16.67;100.00
55761;BME280;41679;51.440;-2.012;2022-08-14T02:44:01;99997.59;;;16.60;100.00
55761;BME280;41679;51.440;-2.012;2022-08-14T02:46:27;99997.16;;;16.46;100.00
55761;BME280;41679;51.440;-2.012;2022-08-14T02:48:52;99996.22;;;16.35;100.00
55761;BME280;41679;51.440;-2.012;2022-08-14T02:51:18;99998.50;;;16.22;100.00
55761;BME280;41679;51.440;-2.012;2022-08-14T02:53:44;99998.59;;;16.10;100.00
55761;BME280;41679;51.440;-2.012;2022-08-14T02:56:12;99994.63;;;16.01;100.00
55761;BME280;41679;51.440;-2.012;2022-08-14T02:58:42;99991.84;;;15.95;100.00
55761;BME280;41679;51.440;-2.012;2022-08-14T03:01:09;99995.91;;;15.93;100.00
55761;BME280;41679;51.440;-2.012;2022-08-14T03:03:35;99997.84;;;15.97;100.00
55761;BME280;41679;51.440;-2.012;2022-08-14T03:06:02;99997.53;;;15.94;100.00
55761;BME280;41679;51.440;-2.012;2022-08-14T03:08:29;99996.13;;;15.91;100.00
55761;BME280;41679;51.440;-2.012;2022-08-14T03:11:01;100003.53;;;15.91;100.00
55761;BME280;41679;51.440;-2.012;2022-08-14T03:13:32;100000.78;;;15.91;100.00
55761;BME280;41679;51.440;-2.012;2022-08-14T03:15:58;100002.34;;;15.87;100.00
55761;BME280;41679;51.440;-2.012;2022-08-14T03:18:25;100006.41;;;15.84;100.00
55761;BME280;41679;51.440;-2.012;2022-08-14T03:20:51;100003.34;;;15.81;100.00
55761;BME280;41679;51.440;-2.012;2022-08-14T03:23:18;99999.13;;;15.73;100.00
55761;BME280;41679;51.440;-2.012;2022-08-14T03:25:46;99988.09;;;15.68;100.00
55761;BME280;41679;51.440;-2.012;2022-08-14T03:28:12;99997.38;;;15.67;100.00
55761;BME280;41679;51.440;-2.012;2022-08-14T03:30:38;99990.75;;;15.63;100.00
55761;BME280;41679;51.440;-2.012;2022-08-14T03:33:04;99991.81;;;15.62;100.00
55761;BME280;41679;51.440;-2.012;2022-08-14T03:35:31;99990.81;;;15.68;100.00
55761;BME280;41679;51.440;-2.012;2022-08-14T03:38:08;99988.19;;;15.73;100.00
55761;BME280;41679;51.440;-2.012;2022-08-14T03:40:34;99974.53;;;15.73;100.00
55761;BME280;41679;51.440;-2.012;2022-08-14T03:43:03;99980.00;;;15.73;100.00
55761;BME280;41679;51.440;-2.012;2022-08-14T03:45:31;99976.69;;;15.71;100.00
55761;BME280;41679;51.440;-2.012;2022-08-14T03:47:57;99971.38;;;15.64;100.00
55761;BME280;41679;51.440;-2.012;2022-08-14T03:50:26;99982.22;;;15.59;100.00
55761;BME280;41679;51.440;-2.012;2022-08-14T03:52:52;99971.75;;;15.56;100.00
55761;BME280;41679;51.440;-2.012;2022-08-14T03:55:17;99971.53;;;15.58;100.00
55761;BME280;41679;51.440;-2.012;2022-08-14T03:57:43;99969.63;;;15.58;100.00
55761;BME280;41679;51.440;-2.012;2022-08-14T04:00:11;99969.13;;;15.61;100.00
55761;BME280;41679;51.440;-2.012;2022-08-14T04:02:39;99966.13;;;15.63;100.00
55761;BME280;41679;51.440;-2.012;2022-08-14T04:05:06;99968.78;;;15.58;100.00
55761;BME280;41679;51.440;-2.012;2022-08-14T04:07:33;99965.16;;;15.52;100.00
55761;BME280;41679;51.440;-2.012;2022-08-14T04:09:59;99967.31;;;15.50;100.00
55761;BME280;41679;51.440;-2.012;2022-08-14T04:12:25;99965.91;;;15.47;100.00
55761;BME280;41679;51.440;-2.012;2022-08-14T04:14:51;99965.66;;;15.49;100.00
55761;BME280;41679;51.440;-2.012;2022-08-14T04:17:20;99964.81;;;15.48;100.00
55761;BME280;41679;51.440;-2.012;2022-08-14T04:19:45;99958.28;;;15.49;100.00
55761;BME280;41679;51.440;-2.012;2022-08-14T04:22:12;99963.97;;;15.48;100.00
55761;BME280;41679;51.440;-2.012;2022-08-14T04:24:38;99960.94;;;15.44;100.00
55761;BME280;41679;51.440;-2.012;2022-08-14T04:27:06;99958.13;;;15.39;100.00
55761;BME280;41679;51.440;-2.012;2022-08-14T04:29:36;99954.78;;;15.37;100.00
55761;BME280;41679;51.440;-2.012;2022-08-14T04:32:04;99950.06;;;15.32;100.00
55761;BME280;41679;51.440;-2.012;2022-08-14T04:34:29;99955.53;;;15.32;100.00
55761;BME280;41679;51.440;-2.012;2022-08-14T04:36:56;99954.47;;;15.34;100.00
55761;BME280;41679;51.440;-2.012;2022-08-14T04:39:40;99943.28;;;15.35;100.00
55761;BME280;41679;51.440;-2.012;2022-08-14T04:42:25;99941.88;;;15.32;100.00
55761;BME280;41679;51.440;-2.012;2022-08-14T04:45:09;99954.56;;;15.39;100.00
55761;BME280;41679;51.440;-2.012;2022-08-14T04:47:34;99947.78;;;15.41;100.00
55761;BME280;41679;51.440;-2.012;2022-08-14T04:50:19;99939.31;;;15.43;100.00
55761;BME280;41679;51.440;-2.012;2022-08-14T04:52:44;99938.75;;;15.41;100.00
55761;BME280;41679;51.440;-2.012;2022-08-14T04:55:13;99936.25;;;15.39;100.00
55761;BME280;41679;51.440;-2.012;2022-08-14T04:57:39;99931.63;;;15.40;100.00
55761;BME280;41679;51.440;-2.012;2022-08-14T05:00:05;99928.16;;;15.44;100.00
55761;BME280;41679;51.440;-2.012;2022-08-14T05:02:31;99924.91;;;15.47;100.00
55761;BME280;41679;51.440;-2.012;2022-08-14T05:04:59;99932.59;;;15.50;100.00
55761;BME280;41679;51.440;-2.012;2022-08-14T05:07:24;99923.78;;;15.43;100.00
55761;BME280;41679;51.440;-2.012;2022-08-14T05:09:50;99918.78;;;15.40;100.00
55761;BME280;41679;51.440;-2.012;2022-08-14T05:12:15;99921.50;;;15.40;100.00
55761;BME280;41679;51.440;-2.012;2022-08-14T05:14:41;99920.78;;;15.45;100.00
55761;BME280;41679;51.440;-2.012;2022-08-14T05:17:07;99927.66;;;15.47;100.00
55761;BME280;41679;51.440;-2.012;2022-08-14T05:19:33;99917.88;;;15.51;100.00
55761;BME280;41679;51.440;-2.012;2022-08-14T05:21:59;99916.06;;;15.57;100.00
55761;BME280;41679;51.440;-2.012;2022-08-14T05:24:25;99921.00;;;15.60;100.00
55761;BME280;41679;51.440;-2.012;2022-08-14T05:26:52;99913.13;;;15.64;100.00
55761;BME280;41679;51.440;-2.012;2022-08-14T05:29:18;99905.50;;;15.66;100.00
55761;BME280;41679;51.440;-2.012;2022-08-14T05:31:43;99902.88;;;15.71;100.00
55761;BME280;41679;51.440;-2.012;2022-08-14T05:34:09;99901.06;;;15.77;100.00
55761;BME280;41679;51.440;-2.012;2022-08-14T05:36:35;99900.88;;;15.83;100.00
55761;BME280;41679;51.440;-2.012;2022-08-14T05:39:01;99905.59;;;15.88;100.00
55761;BME280;41679;51.440;-2.012;2022-08-14T05:41:27;99902.09;;;15.92;100.00
55761;BME280;41679;51.440;-2.012;2022-08-14T05:43:52;99904.56;;;15.94;100.00
55761;BME280;41679;51.440;-2.012;2022-08-14T05:46:19;99904.81;;;15.92;100.00
55761;BME280;41679;51.440;-2.012;2022-08-14T05:48:52;99899.84;;;15.89;100.00
55761;BME280;41679;51.440;-2.012;2022-08-14T05:51:18;99902.28;;;15.86;100.00
55761;BME280;41679;51.440;-2.012;2022-08-14T05:53:45;99892.09;;;15.81;100.00
55761;BME280;41679;51.440;-2.012;2022-08-14T05:56:10;99898.66;;;15.80;100.00
55761;BME280;41679;51.440;-2.012;2022-08-14T05:58:36;99902.22;;;15.81;100.00
55761;BME280;41679;51.440;-2.012;2022-08-14T06:01:01;99904.59;;;15.77;100.00
55761;BME280;41679;51.440;-2.012;2022-08-14T06:03:27;99902.13;;;15.75;100.00
55761;BME280;41679;51.440;-2.012;2022-08-14T06:05:54;99912.88;;;15.82;100.00
55761;BME280;41679;51.440;-2.012;2022-08-14T06:08:25;99906.72;;;15.92;100.00
55761;BME280;41679;51.440;-2.012;2022-08-14T06:10:53;99903.63;;;16.05;100.00
55761;BME280;41679;51.440;-2.012;2022-08-14T06:13:20;99900.25;;;16.20;100.00
55761;BME280;41679;51.440;-2.012;2022-08-14T06:15:48;99895.63;;;16.43;100.00
55761;BME280;41679;51.440;-2.012;2022-08-14T06:18:15;99905.63;;;16.81;100.00
55761;BME280;41679;51.440;-2.012;2022-08-14T06:20:42;99902.56;;;17.37;100.00
55761;BME280;41679;51.440;-2.012;2022-08-14T06:23:07;99907.66;;;18.03;100.00
55761;BME280;41679;51.440;-2.012;2022-08-14T06:25:32;99912.25;;;18.55;100.00
55761;BME280;41679;51.440;-2.012;2022-08-14T06:27:58;99916.22;;;18.95;100.00
55761;BME280;41679;51.440;-2.012;2022-08-14T06:30:27;99923.94;;;18.98;100.00
55761;BME280;41679;51.440;-2.012;2022-08-14T06:32:53;99918.16;;;19.05;100.00
55761;BME280;41679;51.440;-2.012;2022-08-14T06:35:19;99928.03;;;19.21;100.00
55761;BME280;41679;51.440;-2.012;2022-08-14T06:40:22;99920.06;;;19.81;100.00
55761;BME280;41679;51.440;-2.012;2022-08-14T06:42:49;99914.72;;;20.20;100.00
55761;BME280;41679;51.440;-2.012;2022-08-14T06:45:15;99914.56;;;20.61;100.00
55761;BME280;41679;51.440;-2.012;2022-08-14T06:47:43;99924.03;;;20.89;100.00
55761;BME280;41679;51.440;-2.012;2022-08-14T06:50:11;99921.06;;;21.20;100.00
55761;BME280;41679;51.440;-2.012;2022-08-14T06:52:37;99924.22;;;21.42;100.00
55761;BME280;41679;51.440;-2.012;2022-08-14T06:55:05;99920.13;;;21.69;100.00
55761;BME280;41679;51.440;-2.012;2022-08-14T06:57:50;99924.63;;;21.84;100.00
55761;BME280;41679;51.440;-2.012;2022-08-14T07:00:22;99923.06;;;22.02;100.00
55761;BME280;41679;51.440;-2.012;2022-08-14T07:02:49;99924.81;;;22.22;100.00
55761;BME280;41679;51.440;-2.012;2022-08-14T07:05:34;99923.09;;;22.26;100.00
55761;BME280;41679;51.440;-2.012;2022-08-14T07:08:28;99919.94;;;22.57;100.00
55761;BME280;41679;51.440;-2.012;2022-08-14T07:10:56;99921.81;;;22.80;100.00
55761;BME280;41679;51.440;-2.012;2022-08-14T07:13:23;99920.22;;;22.98;100.00
55761;BME280;41679;51.440;-2.012;2022-08-14T07:15:51;99923.69;;;23.23;100.00
55761;BME280;41679;51.440;-2.012;2022-08-14T07:18:23;99928.78;;;23.34;100.00
55761;BME280;41679;51.440;-2.012;2022-08-14T07:20:50;99918.47;;;23.54;100.00
55761;BME280;41679;51.440;-2.012;2022-08-14T07:23:16;99919.00;;;23.89;100.00
55761;BME280;41679;51.440;-2.012;2022-08-14T07:25:43;99916.53;;;24.15;100.00
55761;BME280;41679;51.440;-2.012;2022-08-14T07:28:14;99911.28;;;24.27;100.00
55761;BME280;41679;51.440;-2.012;2022-08-14T07:30:41;99912.63;;;24.30;100.00
55761;BME280;41679;51.440;-2.012;2022-08-14T07:33:07;99905.53;;;24.37;100.00
55761;BME280;41679;51.440;-2.012;2022-08-14T07:35:35;99904.19;;;24.35;100.00
55761;BME280;41679;51.440;-2.012;2022-08-14T07:38:01;99906.56;;;24.41;100.00
55761;BME280;41679;51.440;-2.012;2022-08-14T07:40:27;99901.25;;;24.45;100.00
55761;BME280;41679;51.440;-2.012;2022-08-14T07:42:52;99901.66;;;24.38;100.00
55761;BME280;41679;51.440;-2.012;2022-08-14T07:45:18;99892.09;;;24.31;100.00
55761;BME280;41679;51.440;-2.012;2022-08-14T07:47:43;99892.13;;;24.44;100.00
55761;BME280;41679;51.440;-2.012;2022-08-14T07:50:14;99900.66;;;24.48;100.00
55761;BME280;41679;51.440;-2.012;2022-08-14T07:52:43;99895.28;;;24.24;100.00
55761;BME280;41679;51.440;-2.012;2022-08-14T07:55:10;99891.78;;;24.32;100.00
55761;BME280;41679;51.440;-2.012;2022-08-14T07:57:41;99884.38;;;24.69;100.00
55761;BME280;41679;51.440;-2.012;2022-08-14T08:00:10;99890.81;;;24.78;100.00
55761;BME280;41679;51.440;-2.012;2022-08-14T08:02:39;99887.78;;;24.88;100.00
55761;BME280;41679;51.440;-2.012;2022-08-14T08:05:06;99881.75;;;25.09;100.00
55761;BME280;41679;51.440;-2.012;2022-08-14T08:07:32;99871.44;;;25.23;100.00
55761;BME280;41679;51.440;-2.012;2022-08-14T08:10:11;99879.75;;;25.23;100.00
55761;BME280;41679;51.440;-2.012;2022-08-14T08:13:02;99872.84;;;25.35;100.00
55761;BME280;41679;51.440;-2.012;2022-08-14T08:15:32;99869.63;;;25.19;100.00
55761;BME280;41679;51.440;-2.012;2022-08-14T08:18:02;99875.28;;;25.36;100.00
55761;BME280;41679;51.440;-2.012;2022-08-14T08:20:32;99867.22;;;25.57;100.00
55761;BME280;41679;51.440;-2.012;2022-08-14T08:22:59;99860.72;;;25.62;100.00
55761;BME280;41679;51.440;-2.012;2022-08-14T08:25:26;99868.75;;;25.63;100.00
55761;BME280;41679;51.440;-2.012;2022-08-14T08:27:57;99855.91;;;25.76;100.00
55761;BME280;41679;51.440;-2.012;2022-08-14T08:30:23;99862.84;;;25.96;100.00
55761;BME280;41679;51.440;-2.012;2022-08-14T08:32:51;99851.22;;;25.85;100.00
55761;BME280;41679;51.440;-2.012;2022-08-14T08:35:21;99854.72;;;25.68;100.00
55761;BME280;41679;51.440;-2.012;2022-08-14T08:37:48;99849.22;;;25.46;100.00
55761;BME280;41679;51.440;-2.012;2022-08-14T08:40:28;99835.19;;;25.20;100.00
55761;BME280;41679;51.440;-2.012;2022-08-14T08:42:54;99834.16;;;25.16;100.00
55761;BME280;41679;51.440;-2.012;2022-08-14T08:45:20;99829.22;;;25.13;100.00
55761;BME280;41679;51.440;-2.012;2022-08-14T08:47:47;99837.78;;;25.16;100.00
55761;BME280;41679;51.440;-2.012;2022-08-14T08:50:34;99836.22;;;25.24;100.00
55761;BME280;41679;51.440;-2.012;2022-08-14T08:53:03;99833.78;;;25.31;100.00
55761;BME280;41679;51.440;-2.012;2022-08-14T08:55:36;99827.41;;;25.30;100.00
55761;BME280;41679;51.440;-2.012;2022-08-14T08:58:13;99826.63;;;25.39;100.00
55761;BME280;41679;51.440;-2.012;2022-08-14T09:00:41;99829.63;;;25.42;100.00
55761;BME280;41679;51.440;-2.012;2022-08-14T09:03:12;99829.28;;;25.44;100.00
55761;BME280;41679;51.440;-2.012;2022-08-14T09:08:22;99824.47;;;25.58;100.00
55761;BME280;41679;51.440;-2.012;2022-08-14T09:10:51;99823.50;;;25.63;100.00
55761;BME280;41679;51.440;-2.012;2022-08-14T09:13:18;99817.69;;;25.82;100.00
55761;BME280;41679;51.440;-2.012;2022-08-14T09:15:47;99818.91;;;25.98;100.00
55761;BME280;41679;51.440;-2.012;2022-08-14T09:18:16;99818.63;;;26.08;100.00
55761;BME280;41679;51.440;-2.012;2022-08-14T09:20:43;99816.69;;;26.17;100.00
55761;BME280;41679;51.440;-2.012;2022-08-14T09:23:10;99818.16;;;26.24;100.00
55761;BME280;41679;51.440;-2.012;2022-08-14T09:25:37;99812.91;;;26.22;100.00
55761;BME280;41679;51.440;-2.012;2022-08-14T09:28:06;99822.28;;;26.44;100.00
55761;BME280;41679;51.440;-2.012;2022-08-14T09:30:34;99817.84;;;26.51;100.00
55761;BME280;41679;51.440;-2.012;2022-08-14T09:38:23;99806.06;;;27.06;100.00
55761;BME280;41679;51.440;-2.012;2022-08-14T09:41:17;99802.94;;;27.08;100.00
55761;BME280;41679;51.440;-2.012;2022-08-14T09:43:57;99813.22;;;27.16;100.00
55761;BME280;41679;51.440;-2.012;2022-08-14T09:46:24;99807.03;;;27.11;100.00
55761;BME280;41679;51.440;-2.012;2022-08-14T09:49:03;99804.75;;;27.21;100.00
55761;BME280;41679;51.440;-2.012;2022-08-14T09:51:29;99801.28;;;27.33;100.00
55761;BME280;41679;51.440;-2.012;2022-08-14T09:54:03;99807.31;;;27.44;100.00
55761;BME280;41679;51.440;-2.012;2022-08-14T09:56:48;99800.41;;;27.50;100.00
55761;BME280;41679;51.440;-2.012;2022-08-14T09:59:16;99798.25;;;27.56;100.00
55761;BME280;41679;51.440;-2.012;2022-08-14T10:01:47;99800.19;;;27.64;100.00
55761;BME280;41679;51.440;-2.012;2022-08-14T10:04:18;99785.59;;;27.58;100.00
55761;BME280;41679;51.440;-2.012;2022-08-14T10:06:45;99792.84;;;27.59;100.00
55761;BME280;41679;51.440;-2.012;2022-08-14T10:09:10;99782.44;;;27.68;100.00
55761;BME280;41679;51.440;-2.012;2022-08-14T10:11:37;99787.31;;;27.80;100.00
55761;BME280;41679;51.440;-2.012;2022-08-14T10:14:17;99772.88;;;27.87;100.00
55761;BME280;41679;51.440;-2.012;2022-08-14T10:16:48;99774.34;;;27.93;100.00
55761;BME280;41679;51.440;-2.012;2022-08-14T10:19:19;99766.88;;;28.06;100.00
55761;BME280;41679;51.440;-2.012;2022-08-14T10:22:01;99764.16;;;28.18;100.00
55761;BME280;41679;51.440;-2.012;2022-08-14T10:24:36;99764.78;;;28.24;100.00
55761;BME280;41679;51.440;-2.012;2022-08-14T10:27:23;99760.16;;;28.28;100.00
55761;BME280;41679;51.440;-2.012;2022-08-14T10:29:53;99760.38;;;28.44;100.00
55761;BME280;41679;51.440;-2.012;2022-08-14T10:32:20;99754.38;;;28.54;100.00
55761;BME280;41679;51.440;-2.012;2022-08-14T10:34:47;99753.88;;;28.73;100.00
55761;BME280;41679;51.440;-2.012;2022-08-14T10:37:14;99753.22;;;28.76;100.00
55761;BME280;41679;51.440;-2.012;2022-08-14T10:39:56;99753.00;;;28.81;99.02
55761;BME280;41679;51.440;-2.012;2022-08-14T10:42:21;99750.38;;;28.97;94.91
55761;BME280;41679;51.440;-2.012;2022-08-14T10:44:47;99746.53;;;29.01;92.07
55761;BME280;41679;51.440;-2.012;2022-08-14T10:47:15;99740.91;;;29.10;93.57
55761;BME280;41679;51.440;-2.012;2022-08-14T10:49:55;99739.31;;;29.00;90.09
55761;BME280;41679;51.440;-2.012;2022-08-14T10:52:27;99736.44;;;29.09;90.73
55761;BME280;41679;51.440;-2.012;2022-08-14T10:55:05;99740.78;;;29.19;90.48
55761;BME280;41679;51.440;-2.012;2022-08-14T10:57:32;99728.47;;;29.32;87.01
55761;BME280;41679;51.440;-2.012;2022-08-14T11:00:10;99722.09;;;29.44;86.06
55761;BME280;41679;51.440;-2.012;2022-08-14T11:02:38;99725.31;;;29.58;86.01
55761;BME280;41679;51.440;-2.012;2022-08-14T11:07:39;99722.22;;;29.72;82.70
55761;BME280;41679;51.440;-2.012;2022-08-14T11:10:11;99716.03;;;29.79;74.65
55761;BME280;41679;51.440;-2.012;2022-08-14T11:12:41;99710.44;;;29.91;75.43
55761;BME280;41679;51.440;-2.012;2022-08-14T11:15:11;99709.81;;;29.98;73.54
55761;BME280;41679;51.440;-2.012;2022-08-14T11:17:37;99706.69;;;29.99;71.84
55761;BME280;41679;51.440;-2.012;2022-08-14T11:20:05;99708.06;;;30.05;69.49
55761;BME280;41679;51.440;-2.012;2022-08-14T11:22:32;99705.38;;;30.09;70.11
55761;BME280;41679;51.440;-2.012;2022-08-14T11:25:02;99697.66;;;30.18;69.46
55761;BME280;41679;51.440;-2.012;2022-08-14T11:27:30;99701.25;;;30.31;68.10
55761;BME280;41679;51.440;-2.012;2022-08-14T11:30:00;99699.91;;;30.53;65.50
55761;BME280;41679;51.440;-2.012;2022-08-14T11:32:27;99701.16;;;30.56;62.60
55761;BME280;41679;51.440;-2.012;2022-08-14T11:34:53;99693.84;;;30.51;60.34
55761;BME280;41679;51.440;-2.012;2022-08-14T11:37:19;99690.56;;;30.49;59.88
55761;BME280;41679;51.440;-2.012;2022-08-14T11:39:45;99688.78;;;30.57;58.72
55761;BME280;41679;51.440;-2.012;2022-08-14T11:42:20;99694.03;;;30.58;57.37
55761;BME280;41679;51.440;-2.012;2022-08-14T11:44:46;99689.00;;;30.64;57.02
55761;BME280;41679;51.440;-2.012;2022-08-14T11:47:14;99683.56;;;30.71;56.43
55761;BME280;41679;51.440;-2.012;2022-08-14T11:49:47;99684.03;;;30.73;56.08
55761;BME280;41679;51.440;-2.012;2022-08-14T11:52:16;99688.81;;;30.72;56.88
55761;BME280;41679;51.440;-2.012;2022-08-14T11:54:55;99673.38;;;30.63;55.16
55761;BME280;41679;51.440;-2.012;2022-08-14T11:57:21;99681.19;;;30.85;54.55
55761;BME280;41679;51.440;-2.012;2022-08-14T11:59:47;99678.88;;;30.87;54.20
55761;BME280;41679;51.440;-2.012;2022-08-14T12:02:15;99679.66;;;30.88;53.29
55761;BME280;41679;51.440;-2.012;2022-08-14T12:04:51;99670.72;;;30.82;53.99
55761;BME280;41679;51.440;-2.012;2022-08-14T12:07:17;99674.00;;;30.84;56.70
55761;BME280;41679;51.440;-2.012;2022-08-14T12:09:44;99671.56;;;30.70;56.61
55761;BME280;41679;51.440;-2.012;2022-08-14T12:12:24;99661.91;;;30.68;57.22
55761;BME280;41679;51.440;-2.012;2022-08-14T12:14:55;99672.16;;;30.92;56.72
55761;BME280;41679;51.440;-2.012;2022-08-14T12:17:26;99665.38;;;30.77;55.59
55761;BME280;41679;51.440;-2.012;2022-08-14T12:19:52;99666.25;;;30.65;55.75
55761;BME280;41679;51.440;-2.012;2022-08-14T12:25:05;99652.75;;;30.83;56.54
55761;BME280;41679;51.440;-2.012;2022-08-14T12:27:41;99661.16;;;31.15;55.61
55761;BME280;41679;51.440;-2.012;2022-08-14T12:30:11;99653.44;;;31.59;55.02
55761;BME280;41679;51.440;-2.012;2022-08-14T12:32:42;99653.91;;;31.97;48.69
55761;BME280;41679;51.440;-2.012;2022-08-14T12:35:09;99647.47;;;32.16;46.18
55761;BME280;41679;51.440;-2.012;2022-08-14T12:37:35;99654.91;;;32.28;42.21
55761;BME280;41679;51.440;-2.012;2022-08-14T12:40:09;99647.69;;;32.46;41.99
55761;BME280;41679;51.440;-2.012;2022-08-14T12:42:34;99648.66;;;32.54;41.67
55761;BME280;41679;51.440;-2.012;2022-08-14T12:45:00;99644.97;;;32.50;39.15
55761;BME280;41679;51.440;-2.012;2022-08-14T12:47:26;99641.63;;;32.44;40.54
55761;BME280;41679;51.440;-2.012;2022-08-14T12:49:55;99632.25;;;32.36;39.93
55761;BME280;41679;51.440;-2.012;2022-08-14T12:52:31;99636.25;;;32.55;39.80
55761;BME280;41679;51.440;-2.012;2022-08-14T12:55:04;99633.66;;;32.46;39.88
55761;BME280;41679;51.440;-2.012;2022-08-14T12:57:42;99631.31;;;32.09;42.23
55761;BME280;41679;51.440;-2.012;2022-08-14T13:02:36;99642.22;;;32.34;40.32
55761;BME280;41679;51.440;-2.012;2022-08-14T13:05:02;99632.56;;;32.31;41.43
55761;BME280;41679;51.440;-2.012;2022-08-14T13:07:28;99631.38;;;32.32;40.44
55761;BME280;41679;51.440;-2.012;2022-08-14T13:09:55;99620.78;;;32.45;39.40